createdAt,value
2022-09-21T00:01:56.110Z,7.43
2022-09-21T00:04:58.426Z,7.40
2022-09-21T00:08:01.688Z,7.33
2022-09-21T00:11:06.029Z,7.34
2022-09-21T00:14:12.357Z,7.33
2022-09-21T00:17:15.089Z,7.34
2022-09-21T00:20:17.044Z,7.38
2022-09-21T00:23:20.144Z,7.37
2022-09-21T00:26:24.479Z,7.39
2022-09-21T00:29:26.856Z,7.41
2022-09-21T00:32:32.910Z,7.41
2022-09-21T00:35:36.054Z,7.36
2022-09-21T00:38:38.762Z,7.43
2022-09-21T00:41:40.770Z,7.44
2022-09-21T00:44:43.051Z,7.48
2022-09-21T00:47:45.690Z,7.50
2022-09-21T00:50:51.473Z,7.57
2022-09-21T00:53:57.041Z,7.51
2022-09-21T00:57:03.167Z,7.46
2022-09-21T01:00:09.253Z,7.40
2022-09-21T01:03:12.560Z,7.42
2022-09-21T01:06:16.131Z,7.37
2022-09-21T01:09:18.846Z,7.37
2022-09-21T01:12:29.978Z,7.32
2022-09-21T01:15:46.292Z,7.28
2022-09-21T01:19:01.269Z,7.40
2022-09-21T01:22:15.661Z,7.36
2022-09-21T01:25:32.337Z,7.41
2022-09-21T01:28:52.888Z,7.44
2022-09-21T01:32:05.532Z,7.44
2022-09-21T01:35:15.514Z,7.46
2022-09-21T01:38:27.779Z,7.44
2022-09-21T01:41:31.095Z,7.47
2022-09-21T01:44:41.439Z,7.44
2022-09-21T01:47:43.956Z,7.47
2022-09-21T01:50:50.215Z,7.48
2022-09-21T01:54:00.012Z,7.47
2022-09-21T01:57:08.726Z,7.46
2022-09-21T02:00:11.593Z,7.53
2022-09-21T02:03:29.550Z,7.44
2022-09-21T02:06:35.112Z,7.44
2022-09-21T02:09:37.468Z,7.40
2022-09-21T02:12:41.009Z,7.38
2022-09-21T02:15:54.036Z,7.30
2022-09-21T02:19:12.687Z,7.26
2022-09-21T02:22:30.069Z,7.11
2022-09-21T02:25:45.026Z,7.08
2022-09-21T02:28:53.807Z,7.11
2022-09-21T02:31:59.958Z,7.05
2022-09-21T02:35:11.499Z,7.07
2022-09-21T02:38:26.674Z,7.02
2022-09-21T02:41:40.708Z,7.03
2022-09-21T02:44:57.707Z,7.03
2022-09-21T02:48:07.679Z,7.03
2022-09-21T02:51:17.643Z,6.97
2022-09-21T02:54:26.461Z,7.03
2022-09-21T02:57:28.755Z,6.99
2022-09-21T03:00:31.258Z,7.07
2022-09-21T03:03:36.304Z,7.12
2022-09-21T03:06:38.987Z,7.20
2022-09-21T03:09:40.879Z,7.24
2022-09-21T03:12:45.855Z,7.19
2022-09-21T03:15:47.666Z,7.30
2022-09-21T03:18:49.363Z,7.37
2022-09-21T03:21:51.591Z,7.44
2022-09-21T03:24:58.563Z,7.57
2022-09-21T03:28:01.364Z,7.63
2022-09-21T03:31:03.682Z,7.54
2022-09-21T03:34:05.484Z,7.55
2022-09-21T03:37:08.521Z,7.50
2022-09-21T03:40:12.726Z,7.53
2022-09-21T03:43:14.985Z,7.52
2022-09-21T03:46:18.347Z,7.56
2022-09-21T03:49:20.394Z,7.61
2022-09-21T03:52:22.203Z,7.52
2022-09-21T03:55:24.516Z,7.53
2022-09-21T03:58:26.405Z,7.46
2022-09-21T04:01:28.292Z,7.46
2022-09-21T04:04:30.106Z,7.43
2022-09-21T04:07:35.379Z,7.38
2022-09-21T04:10:41.410Z,7.38
2022-09-21T04:13:43.704Z,7.37
2022-09-21T04:16:46.631Z,7.35
2022-09-21T04:19:49.070Z,7.39
2022-09-21T04:22:52.835Z,7.33
2022-09-21T04:25:56.241Z,7.32
2022-09-21T04:28:58.246Z,7.25
2022-09-21T04:32:00.166Z,7.23
2022-09-21T04:35:02.944Z,7.18
2022-09-21T04:38:05.309Z,7.13
2022-09-21T04:41:07.150Z,7.13
2022-09-21T04:44:09.457Z,7.06
2022-09-21T04:47:11.963Z,7.08
2022-09-21T04:50:14.695Z,7.07
2022-09-21T04:53:17.517Z,7.06
2022-09-21T04:56:19.905Z,7.01
2022-09-21T04:59:22.602Z,6.96
2022-09-21T05:02:24.972Z,6.95
2022-09-21T05:05:27.542Z,6.91
2022-09-21T05:08:48.369Z,6.93
2022-09-21T05:11:50.342Z,6.98
2022-09-21T05:14:53.133Z,6.97
2022-09-21T05:17:55.005Z,7.05
2022-09-21T05:20:57.566Z,7.09
2022-09-21T05:23:59.396Z,7.15
2022-09-21T05:27:01.920Z,7.16
2022-09-21T05:30:05.481Z,7.22
2022-09-21T05:33:08.994Z,7.23
2022-09-21T05:36:32.166Z,7.31
2022-09-21T05:39:35.133Z,7.32
2022-09-21T05:42:37.977Z,7.40
2022-09-21T05:45:47.932Z,7.38
2022-09-21T05:49:03.627Z,7.43
2022-09-21T05:52:15.643Z,7.48
2022-09-21T05:55:36.574Z,7.48
2022-09-21T05:58:52.906Z,7.60
2022-09-21T06:01:59.978Z,7.70
2022-09-21T06:05:02.974Z,7.84
2022-09-21T06:08:04.908Z,8.07
2022-09-21T06:11:06.624Z,8.16
2022-09-21T06:14:08.398Z,8.36
2022-09-21T06:17:10.163Z,8.33
2022-09-21T06:20:12.019Z,8.44
2022-09-21T06:23:14.904Z,8.59
2022-09-21T06:26:17.904Z,8.61
2022-09-21T06:29:23.715Z,8.64
2022-09-21T06:32:25.612Z,8.59
2022-09-21T06:35:28.976Z,8.63
2022-09-21T06:38:31.149Z,8.80
2022-09-21T06:41:32.970Z,8.94
2022-09-21T06:44:34.715Z,9.02
2022-09-21T06:47:36.677Z,9.08
2022-09-21T06:50:38.790Z,9.41
2022-09-21T06:53:40.609Z,9.82
2022-09-21T06:56:43.489Z,9.87
2022-09-21T06:59:45.353Z,9.83
2022-09-21T07:02:47.187Z,9.83
2022-09-21T07:05:49.739Z,9.85
2022-09-21T07:12:15.940Z,9.39
2022-09-21T07:15:19.367Z,9.37
2022-09-21T07:18:22.111Z,9.83
2022-09-21T07:21:23.863Z,10.21
2022-09-21T07:24:25.731Z,10.24
2022-09-21T07:27:29.284Z,10.47
2022-09-21T07:30:31.120Z,10.48
2022-09-21T07:33:35.985Z,10.93
2022-09-21T07:36:37.993Z,10.98
2022-09-21T07:39:39.796Z,11.01
2022-09-21T07:42:41.531Z,10.94
2022-09-21T07:45:43.760Z,11.22
2022-09-21T07:48:45.658Z,11.14
2022-09-21T07:51:47.477Z,11.42
2022-09-21T07:54:49.302Z,11.46
2022-09-21T07:58:09.512Z,11.69
2022-09-21T08:01:12.311Z,11.66
2022-09-21T08:04:14.414Z,11.85
2022-09-21T08:07:16.348Z,12.26
2022-09-21T08:10:18.406Z,11.92
2022-09-21T08:13:20.226Z,11.93
2022-09-21T08:16:22.641Z,12.38
2022-09-21T08:19:26.748Z,12.54
2022-09-21T08:22:28.730Z,12.58
2022-09-21T08:25:30.682Z,12.90
2022-09-21T08:28:33.921Z,12.59
2022-09-21T08:31:36.005Z,12.38
2022-09-21T08:34:37.919Z,12.33
2022-09-21T08:37:39.659Z,12.03
2022-09-21T08:40:41.541Z,11.85
2022-09-21T08:43:45.378Z,11.92
2022-09-21T08:46:51.629Z,11.55
2022-09-21T08:49:57.034Z,11.41
2022-09-21T08:53:04.308Z,11.31
2022-09-21T08:56:06.684Z,11.25
2022-09-21T08:59:13.672Z,11.47
2022-09-21T09:02:28.942Z,11.59
2022-09-21T09:05:55.753Z,11.74
2022-09-21T09:09:19.329Z,12.05
2022-09-21T09:12:47.134Z,12.32
2022-09-21T09:15:52.647Z,12.92
2022-09-21T09:19:17.057Z,13.30
2022-09-21T09:22:25.677Z,13.18
2022-09-21T09:25:27.576Z,12.76
2022-09-21T09:28:33.134Z,12.81
2022-09-21T09:31:36.813Z,12.84
2022-09-21T09:34:46.290Z,12.66
2022-09-21T09:37:48.788Z,13.03
2022-09-21T09:41:24.402Z,13.31
2022-09-21T09:44:45.274Z,13.14
2022-09-21T09:48:15.999Z,13.32
2022-09-21T09:51:19.427Z,13.31
2022-09-21T09:54:23.065Z,13.46
2022-09-21T09:57:29.764Z,13.47
2022-09-21T10:00:31.757Z,13.85
2022-09-21T10:03:34.713Z,13.96
2022-09-21T10:06:42.362Z,13.27
2022-09-21T10:09:47.560Z,12.78
2022-09-21T10:12:51.930Z,13.87
2022-09-21T10:16:13.182Z,14.47
2022-09-21T10:19:22.952Z,14.70
2022-09-21T10:22:24.893Z,14.50
2022-09-21T10:25:27.369Z,14.33
2022-09-21T10:28:30.189Z,15.07
2022-09-21T10:31:32.116Z,14.18
2022-09-21T10:34:35.895Z,13.70
2022-09-21T10:37:42.982Z,13.69
2022-09-21T10:40:44.909Z,14.29
2022-09-21T10:43:48.538Z,14.79
2022-09-21T10:46:51.356Z,14.75
2022-09-21T10:49:58.313Z,14.34
2022-09-21T10:53:01.374Z,14.15
2022-09-21T10:56:24.333Z,13.57
2022-09-21T10:59:30.204Z,13.48
2022-09-21T11:02:35.994Z,13.23
2022-09-21T11:05:40.390Z,13.12
2022-09-21T11:09:18.822Z,13.41
2022-09-21T11:12:33.238Z,13.17
2022-09-21T11:15:58.905Z,12.93
2022-09-21T11:19:33.397Z,12.64
2022-09-21T11:22:44.679Z,12.69
2022-09-21T11:25:48.866Z,13.10
2022-09-21T11:29:00.493Z,13.24
2022-09-21T11:32:11.553Z,13.05
2022-09-21T11:35:43.552Z,12.93
2022-09-21T11:38:59.074Z,13.15
2022-09-21T11:42:28.051Z,13.56
2022-09-21T11:45:49.785Z,13.38
2022-09-21T11:49:17.442Z,13.93
2022-09-21T11:52:58.363Z,14.28
2022-09-21T11:56:05.785Z,14.73
2022-09-21T12:00:01.359Z,14.90
2022-09-21T12:04:03.723Z,14.87
2022-09-21T12:07:41.041Z,14.21
2022-09-21T12:10:55.096Z,13.75
2022-09-21T12:14:08.121Z,14.75
2022-09-21T12:17:18.720Z,14.64
2022-09-21T12:20:26.682Z,14.41
2022-09-21T12:23:49.901Z,14.17
2022-09-21T12:27:05.144Z,14.24
2022-09-21T12:30:18.694Z,14.64
2022-09-21T12:33:33.709Z,14.11
2022-09-21T12:36:56.651Z,14.39
2022-09-21T12:40:25.402Z,14.61
2022-09-21T12:43:53.545Z,14.04
2022-09-21T12:47:09.639Z,14.32
2022-09-21T12:50:37.851Z,13.85
2022-09-21T12:53:45.273Z,13.38
2022-09-21T12:56:56.115Z,13.22
2022-09-21T13:00:04.495Z,13.33
2022-09-21T13:04:03.854Z,13.39
2022-09-21T13:07:30.713Z,13.35
2022-09-21T13:10:42.020Z,14.02
2022-09-21T13:13:53.092Z,14.00
2022-09-21T13:17:01.099Z,13.99
2022-09-21T13:20:06.133Z,14.35
2022-09-21T13:23:20.878Z,13.89
2022-09-21T13:26:32.899Z,13.88
2022-09-21T13:29:36.824Z,14.10
2022-09-21T13:32:57.533Z,14.13
2022-09-21T13:36:02.549Z,14.20
2022-09-21T13:39:15.210Z,13.86
2022-09-21T13:42:29.556Z,13.52
2022-09-21T13:45:34.610Z,13.77
2022-09-21T13:48:37.613Z,13.53
2022-09-21T13:52:08.449Z,13.85
2022-09-21T13:55:42.325Z,13.94
2022-09-21T13:58:47.564Z,13.88
2022-09-21T14:01:50.871Z,13.80
2022-09-21T14:04:52.929Z,13.95
2022-09-21T14:08:02.447Z,14.09
2022-09-21T14:11:27.754Z,14.21
2022-09-21T14:14:34.061Z,14.18
2022-09-21T14:17:40.782Z,13.88
2022-09-21T14:21:08.841Z,14.07
2022-09-21T14:24:20.629Z,13.16
2022-09-21T14:27:32.197Z,12.94
2022-09-21T14:30:35.787Z,12.88
2022-09-21T14:33:48.321Z,12.70
2022-09-21T14:36:51.497Z,12.65
2022-09-21T14:39:53.769Z,12.79
2022-09-21T14:42:58.740Z,12.60
2022-09-21T14:46:03.634Z,12.74
2022-09-21T14:49:46.349Z,12.79
2022-09-21T14:52:53.742Z,13.04
2022-09-21T14:56:22.094Z,12.58
2022-09-21T14:59:42.776Z,12.71
2022-09-21T15:02:44.981Z,12.71
2022-09-21T15:05:52.396Z,12.95
2022-09-21T15:09:55.322Z,12.53
2022-09-21T15:12:59.334Z,12.59
2022-09-21T15:16:26.505Z,12.47
2022-09-21T15:19:29.147Z,12.20
2022-09-21T15:22:32.289Z,12.01
2022-09-21T15:25:34.489Z,11.82
2022-09-21T15:29:05.161Z,12.06
2022-09-21T15:32:02.847Z,11.90
2022-09-21T15:35:16.496Z,11.82
2022-09-21T15:38:32.724Z,11.67
2022-09-21T15:41:41.982Z,11.56
2022-09-21T15:44:48.827Z,11.55
2022-09-21T15:47:52.030Z,11.52
2022-09-21T15:50:59.958Z,11.46
2022-09-21T15:54:09.949Z,11.55
2022-09-21T15:57:39.436Z,11.55
2022-09-21T16:00:53.953Z,11.52
2022-09-21T16:04:06.575Z,11.48
2022-09-21T16:07:24.720Z,11.34
2022-09-21T16:10:37.770Z,11.19
2022-09-21T16:13:58.234Z,11.11
2022-09-21T16:17:06.780Z,10.99
2022-09-21T16:20:23.630Z,10.87
2022-09-21T16:23:30.087Z,10.86
2022-09-21T16:26:37.014Z,10.74
2022-09-21T16:29:39.606Z,10.59
2022-09-21T16:32:42.594Z,10.66
2022-09-21T16:35:44.769Z,10.66
2022-09-21T16:38:56.462Z,10.58
2022-09-21T16:42:02.412Z,10.47
2022-09-21T16:45:11.451Z,10.49
2022-09-21T16:48:13.685Z,10.47
2022-09-21T16:51:22.566Z,10.42
2022-09-21T16:54:26.377Z,10.35
2022-09-21T16:57:29.270Z,10.28
2022-09-21T17:00:35.029Z,10.30
2022-09-21T17:03:37.039Z,10.35
2022-09-21T17:06:44.986Z,10.29
2022-09-21T17:09:48.074Z,10.31
2022-09-21T17:12:51.239Z,10.28
2022-09-21T17:15:53.945Z,10.29
2022-09-21T17:18:56.083Z,10.17
2022-09-21T17:22:00.125Z,10.07
2022-09-21T17:25:02.233Z,10.14
2022-09-21T17:28:13.703Z,9.92
2022-09-21T17:31:16.922Z,9.76
2022-09-21T17:34:19.447Z,9.72
2022-09-21T17:37:22.577Z,9.71
2022-09-21T17:40:25.095Z,9.70
2022-09-21T17:43:54.893Z,9.58
2022-09-21T17:47:09.797Z,9.49
2022-09-21T17:50:21.079Z,9.51
2022-09-21T17:53:37.821Z,9.50
2022-09-21T17:56:54.744Z,9.38
2022-09-21T18:00:05.249Z,9.33
2022-09-21T18:03:41.314Z,9.26
2022-09-21T18:06:43.811Z,9.21
2022-09-21T18:09:46.629Z,9.27
2022-09-21T18:13:12.206Z,9.25
2022-09-21T18:16:33.940Z,9.26
2022-09-21T18:19:45.759Z,9.36
2022-09-21T18:22:58.843Z,9.12
2022-09-21T18:26:01.661Z,9.09
2022-09-21T18:29:22.453Z,9.02
2022-09-21T18:32:57.479Z,8.97
2022-09-21T18:36:12.032Z,8.91
2022-09-21T18:39:38.291Z,8.88
2022-09-21T18:43:00.500Z,8.89
2022-09-21T18:46:05.966Z,8.97
2022-09-21T18:49:23.829Z,8.95
2022-09-21T18:52:32.253Z,8.97
2022-09-21T18:55:36.651Z,8.87
2022-09-21T18:58:39.833Z,8.98
2022-09-21T19:01:47.233Z,8.94
2022-09-21T19:04:50.071Z,8.99
2022-09-21T19:08:01.980Z,9.01
2022-09-21T19:11:16.215Z,8.95
2022-09-21T19:14:36.286Z,8.86
2022-09-21T19:18:04.598Z,8.89
2022-09-21T19:21:09.835Z,8.95
2022-09-21T19:24:19.253Z,8.97
2022-09-21T19:27:27.288Z,8.98
2022-09-21T19:30:30.832Z,9.08
2022-09-21T19:33:49.414Z,9.13
2022-09-21T19:36:52.417Z,9.13
2022-09-21T19:39:54.688Z,9.17
2022-09-21T19:43:06.347Z,9.17
2022-09-21T19:46:20.679Z,9.20
2022-09-21T19:49:24.369Z,9.23
2022-09-21T19:52:32.539Z,9.17
2022-09-21T19:55:53.016Z,9.14
2022-09-21T19:59:16.493Z,9.14
2022-09-21T20:02:32.649Z,9.06
2022-09-21T20:05:45.996Z,9.00
2022-09-21T20:09:13.773Z,8.98
2022-09-21T20:12:23.183Z,9.04
2022-09-21T20:15:34.036Z,9.11
2022-09-21T20:18:45.791Z,8.97
2022-09-21T20:21:51.069Z,8.95
2022-09-21T20:25:10.105Z,8.87
2022-09-21T20:28:12.312Z,8.96
2022-09-21T20:31:14.633Z,8.89
2022-09-21T20:34:16.676Z,8.89
2022-09-21T20:37:19.426Z,8.85
2022-09-21T20:40:26.844Z,8.82
2022-09-21T20:43:32.587Z,8.71
2022-09-21T20:46:34.931Z,8.73
2022-09-21T20:49:37.172Z,8.64
2022-09-21T20:52:43.101Z,8.60
2022-09-21T20:55:57.044Z,8.47
2022-09-21T20:58:59.258Z,8.40
2022-09-21T21:02:01.112Z,8.44
2022-09-21T21:05:03.920Z,8.45
2022-09-21T21:08:06.666Z,8.47
2022-09-21T21:11:10.231Z,8.44
2022-09-21T21:14:12.078Z,8.38
2022-09-21T21:17:17.450Z,8.33
2022-09-21T21:20:19.280Z,8.26
2022-09-21T21:23:21.368Z,8.27
2022-09-21T21:26:38.191Z,8.29
2022-09-21T21:29:46.398Z,8.17
2022-09-21T21:32:52.398Z,8.16
2022-09-21T21:36:07.202Z,8.07
2022-09-21T21:39:10.032Z,8.10
2022-09-21T21:42:12.619Z,8.07
2022-09-21T21:45:14.396Z,8.03
2022-09-21T21:48:16.385Z,8.02
2022-09-21T21:51:18.242Z,8.06
2022-09-21T21:54:24.355Z,7.99
2022-09-21T21:57:26.116Z,8.09
2022-09-21T22:00:27.965Z,8.07
2022-09-21T22:03:30.024Z,8.08
2022-09-21T22:06:33.802Z,8.06
2022-09-21T22:09:35.656Z,8.00
2022-09-21T22:12:37.460Z,7.94
2022-09-21T22:15:39.514Z,7.97
2022-09-21T22:18:42.365Z,7.96
2022-09-21T22:21:53.250Z,8.01
2022-09-21T22:24:56.631Z,7.95
2022-09-21T22:27:58.557Z,8.00
2022-09-21T22:31:02.870Z,7.93
2022-09-21T22:34:05.566Z,7.89
2022-09-21T22:37:07.425Z,7.90
2022-09-21T22:40:09.844Z,7.86
2022-09-21T22:43:15.868Z,7.86
2022-09-21T22:46:18.007Z,7.86
2022-09-21T22:49:19.805Z,7.91
2022-09-21T22:52:21.548Z,7.89
2022-09-21T22:55:23.358Z,7.87
2022-09-21T22:58:25.122Z,7.83
2022-09-21T23:01:40.402Z,7.86
2022-09-21T23:04:42.271Z,7.88
2022-09-21T23:07:44.063Z,7.90
2022-09-21T23:10:45.845Z,7.86
2022-09-21T23:13:48.266Z,7.87
2022-09-21T23:16:50.391Z,7.89
2022-09-21T23:19:52.215Z,7.94
2022-09-21T23:22:53.890Z,7.83
2022-09-21T23:26:06.359Z,7.79
2022-09-21T23:29:12.705Z,7.74
2022-09-21T23:32:14.884Z,7.72
2022-09-21T23:35:16.733Z,7.78
2022-09-21T23:38:18.702Z,7.81
2022-09-21T23:41:33.722Z,7.80
2022-09-21T23:44:35.663Z,7.87
2022-09-21T23:47:37.458Z,7.88
2022-09-21T23:50:39.345Z,7.84
2022-09-21T23:53:42.021Z,7.77
2022-09-21T23:56:43.925Z,7.79
2022-09-21T23:59:45.638Z,7.69
